Cedar Grove, NJ (07009)

2:13 PM EDT on August 29, 2015 (GMT -0400)
Crestmont Road | | Change Station
CLOSE
Current Station
Personal Weather Station
Location: Cedar Grove, NJ
Elevation: 564 ft
Nearby Weather Stations

Elev 564 ft 40.84 °N, 74.22 °W | Updated 13 seconds ago

Partly Cloudy
Partly Cloudy
81.4 °F
Feels Like 82 °F
N
1.0
Wind Variable Wind from WSW
Gusts 6.0 mph

Today
High -- | Low -- °F
--% Chance of Precip.
Yesterday
High -- | Low -- °F
Precip. -- in
6:20 AM 7:34 PM
Full, 100% visible
Pressure 30.18 in
Visibility 10.0 miles
Clouds Few 6500 ft
Heat Index 82 °F
Dew Point 59 °F
Humidity 47%
Rainfall 0.00 in
Snow Depth Not available.
UV 1.2 out of 12
Pollen 10.00 out of 12
Air Quality Not available.
Flu Activity Not available.
METAR KCDW 291753Z VRB04KT 10SM FEW065 28/13 A3016 RMK AO2 SLP218 T02780133 10278 20161 58019
Pressure 30.18 in
Visibility 10.0 miles
Clouds Few 6500 ft
Heat Index 82 °F
Dew Point 59 °F
Humidity 47%
Rainfall 0.00 in
Snow Depth Not available.
UV 1.2 out of 12
Pollen 10.00 out of 12
Air Quality Not available.
Flu Activity Not available.
METAR KCDW 291753Z VRB04KT 10SM FEW065 28/13 A3016 RMK AO2 SLP218 T02780133 10278 20161 58019

10-Day Weather Forecast

×

Almanac

Astronomy

Aug. 29, 2015 Rise Set
Actual Time
Civil Twilight
Nautical Twilight
Astronomical Twilight
Moon
Length of Visible Light
Length of Day
Tomorrow will be .
, % of the Moon is Illuminated

Today's Extremes

State Highs State Lows

Community

WunderPhotos

Upload Photos

1,850,752 photos uploaded!

WunderBlogs® & News

Nearby

Air Quality

  Air Quality AQ Index Pollutant
Not available.

Snow Depth

Station Depth Elevation

Earthquake Activity

City Distance Mag. Time & Date
Minimum magnitude displayed is 2.5.

Coastal Water Temperatures

Place Temperature

Stations

Nearby Weather Stations

Station Location Temp. Windchill Dew Point Humidity Wind Precip. Elev Updated Type